Latest Coastal Weather Observations for Redcliffe

IDQ60701

Issued at 9:55 am EST Sunday 21 September 2014 (issued every 10 minutes, with the page automatically refreshed every 10 minutes)

About coastal observations | Map of coastal stations | Coastal observations for QLD | Marine services | Other Formats
Station Details ID: 040958 Name: REDCLIFFE Lat: -27.22 Lon: 153.09 Height: 12.6 m
Data from the previous 72 hours. | See also: Recent months at Redcliffe
Date/Time
EST
Temp

°C
Wind Pressure Rain
since 9am
mm
Weather Cloud Vis
km
Sea
Height
m
Swell
Dir
 
Speed
knots
Gust
knots
hPa Trend Height
m
Period
s
Dir
21/09:30am 19.4 S 12 16 1026.5 - 0.0 - - - - - - -
21/09:00am 19.4 S 11 16 1026.4 - 0.0 - - - - - - -
21/08:30am 18.7 S 13 15 1026.3 - 0.0 - - - - - - -
21/08:00am 17.7 S 11 15 1026.2 - 0.0 - - - - - - -
21/07:30am 16.6 SSW 9 15 1026.0 - 0.0 - - - - - - -
21/07:00am 15.9 SSW 8 12 1025.7 - 0.0 - - - - - - -
21/06:30am 14.6 SSW 7 10 1025.3 - 0.0 - - - - - - -
21/06:00am 14.3 SSW 8 11 1024.9 - 0.0 - - - - - - -
21/05:30am 14.2 SSW 8 10 1024.5 - 0.0 - - - - - - -
21/05:00am 14.2 SSW 7 10 1024.4 - 0.0 - - - - - - -
21/04:30am 14.5 SSW 7 9 1024.4 - 0.0 - - - - - - -
21/04:00am 14.7 SSW 8 11 1024.0 - 0.0 - - - - - - -
21/03:30am 15.6 S 13 16 1023.7 - 0.0 - - - - - - -
21/03:00am 15.9 S 11 15 1023.8 - 0.0 - - - - - - -
21/02:30am 16.1 S 11 14 1023.9 - 0.0 - - - - - - -
21/02:00am 16.3 S 12 15 1024.1 - 0.0 - - - - - - -
21/01:30am 17.0 S 10 13 1024.3 - 0.0 - - - - - - -
21/01:00am 17.9 S 11 15 1024.4 - 0.0 - - - - - - -
21/12:30am 18.9 SE 14 16 1024.5 - 0.0 - - - - - - -
21/12:00am 19.1 SE 14 17 1024.5 - 0.0 - - - - - - -
 
Date/Time
EST
Temp

°C
Wind Pressure Rain
since 9am
mm
Weather Cloud Vis
km
Sea
Height
m
Swell
Dir
 
Speed
knots
Gust
knots
hPa Trend Height
m
Period
s
Dir
20/11:30pm 18.7 SE 15 19 1024.3 - 0.0 - - - - - - -
20/11:00pm 18.9 SE 16 19 1024.1 - 0.0 - - - - - - -
20/10:30pm 19.0 SE 17 20 1023.9 - 0.0 - - - - - - -
20/10:00pm 19.0 SE 17 19 1024.2 - 0.0 - - - - - - -
20/09:30pm 19.2 SE 16 18 1024.3 - 0.0 - - - - - - -
20/09:00pm 19.4 SE 16 19 1024.1 - 0.0 - - - - - - -
20/08:30pm 19.3 SE 16 18 1023.8 - 0.0 - - - - - - -
20/08:00pm 19.5 SE 17 19 1023.3 - 0.0 - - - - - - -
20/07:30pm 19.3 SE 16 19 1022.6 - 0.0 - - - - - - -
20/07:00pm 19.4 SE 17 19 1022.4 - 0.0 - - - - - - -
20/06:30pm 19.4 SE 17 20 1021.9 - 0.0 - - - - - - -
20/06:00pm 19.6 ESE 17 19 1021.3 - 0.0 - - - - - - -
20/05:30pm 19.6 ESE 19 21 1020.5 - 0.0 - - - - - - -
20/05:00pm 19.8 ESE 18 20 1019.8 - 0.0 - - - - - - -
20/04:30pm 19.7 ESE 18 21 1019.4 - 0.0 - - - - - - -
20/04:00pm 19.8 ESE 17 20 1019.3 - 0.0 - - - - - - -
20/03:30pm 20.4 ESE 17 21 1019.1 - 0.0 - - - - - - -
20/03:00pm 19.9 ESE 19 21 1019.0 - 0.0 - - - - - - -
20/02:30pm 20.2 ESE 18 21 1018.9 - 0.0 - - - - - - -
20/02:00pm 20.6 ESE 18 20 1018.9 - 0.0 - - - - - - -
20/01:30pm 20.9 ESE 16 18 1018.8 - 0.0 - - - - - - -
20/01:00pm 20.3 SE 16 17 1019.3 - 0.0 - - - - - - -
20/12:30pm 20.0 SE 17 19 1019.6 - 0.0 - - - - - - -
20/12:00pm 21.0 SE 17 19 1019.9 - 0.0 - - - - - - -
20/11:30am 20.1 SSE 17 18 1020.5 - 0.0 - - - - - - -
20/11:00am 20.2 SE 16 18 1020.8 - 0.0 - - - - - - -
20/10:30am 20.8 SSE 17 19 1021.0 - 0.0 - - - - - - -
20/10:00am 21.4 SSE 17 19 1021.3 - 0.0 - - - - - - -
20/09:30am 19.7 SSE 15 16 1021.6 - 0.0 - - - - - - -
20/09:00am 21.4 SSE 10 13 1021.7 - 0.0 - - - - - - -
20/08:30am 19.9 S 11 14 1021.7 - 0.0 - - - - - - -
20/08:00am 19.6 S 13 15 1021.4 - 0.0 - - - - - - -
20/07:30am 18.3 S 7 8 1020.8 - 0.0 - - - - - - -
20/07:00am 16.4 SSW 7 9 1020.5 - 0.0 - - - - - - -
20/06:30am 14.7 SSW 7 9 1019.9 - 0.0 - - - - - - -
20/06:00am 14.3 SW 6 7 1019.5 - 0.0 - - - - - - -
20/05:30am 13.8 WSW 7 8 1019.2 - 0.0 - - - - - - -
20/05:00am 13.8 WSW 7 9 1018.8 - 0.0 - - - - - - -
20/04:30am 13.9 WSW 7 8 1018.4 - 0.0 - - - - - - -
20/04:00am 13.9 W 4 5 1018.2 - 0.0 - - - - - - -
20/03:30am 14.2 W 5 6 1018.1 - 0.0 - - - - - - -
20/03:00am 14.5 W 5 6 1018.1 - 0.0 - - - - - - -
20/02:30am 15.0 W 6 7 1018.3 - 0.0 - - - - - - -
20/02:00am 15.2 W 6 7 1018.5 - 0.0 - - - - - - -
20/01:30am 16.1 WNW 6 8 1018.6 - 0.0 - - - - - - -
20/01:00am 17.0 NNW 6 9 1018.6 - 0.0 - - - - - - -
20/12:30am 17.7 NNW 5 7 1018.9 - 0.0 - - - - - - -
20/12:00am 18.4 NNW 5 7 1019.2 - 0.0 - - - - - - -
 
Date/Time
EST
Temp

°C
Wind Pressure Rain
since 9am
mm
Weather Cloud Vis
km
Sea
Height
m
Swell
Dir
 
Speed
knots
Gust
knots
hPa Trend Height
m
Period
s
Dir
19/11:30pm 17.9 N 5 6 1019.3 - 0.0 - - - - - - -
19/11:00pm 17.2 WNW 4 4 1019.4 - 0.0 - - - - - - -
19/10:30pm 17.3 WNW 5 6 1019.5 - 0.0 - - - - - - -
19/10:00pm 18.0 NNW 5 6 1019.5 - 0.0 - - - - - - -
19/09:30pm 19.6 N 10 12 1019.4 - 0.0 - - - - - - -
19/09:00pm 20.0 NNE 10 12 1019.4 - 0.0 - - - - - - -
19/08:30pm 20.1 NNE 13 15 1019.2 - 0.0 - - - - - - -
19/08:00pm 20.0 NNE 13 15 1019.1 - 0.0 - - - - - - -
19/07:30pm 20.1 NNE 12 14 1018.8 - 0.0 - - - - - - -
19/07:00pm 20.1 NNE 13 15 1018.6 - 0.0 - - - - - - -
19/06:30pm 20.1 NNE 15 17 1018.1 - 0.0 - - - - - - -
19/06:00pm 20.3 NNE 16 18 1017.7 - 0.0 - - - - - - -
19/05:30pm 20.5 NNE 16 18 1017.2 - 0.0 - - - - - - -
19/05:00pm 20.7 NE 16 18 1016.9 - 0.0 - - - - - - -
19/04:30pm 21.1 NE 16 19 1016.7 - 0.0 - - - - - - -
19/04:00pm 21.2 NE 15 18 1016.6 - 0.0 - - - - - - -
19/03:30pm 21.3 NE 16 18 1016.5 - 0.0 - - - - - - -
19/03:00pm 21.4 NE 15 17 1016.6 - 0.0 - - - - - - -
19/02:30pm 21.5 NE 15 16 1016.6 - 0.0 - - - - - - -
19/02:00pm 21.3 NE 15 17 1016.9 - 0.0 - - - - - - -
19/01:30pm 21.4 ENE 14 16 1017.4 - 0.0 - - - - - - -
19/01:00pm 21.9 ENE 11 13 1018.0 - 0.0 - - - - - - -
19/12:30pm 21.7 E 9 10 1018.5 - 0.0 - - - - - - -
19/12:00pm 22.0 E 7 8 1019.0 - 0.0 - - - - - - -
19/11:30am 22.2 E 6 7 1019.7 - 0.0 - - - - - - -
19/11:00am 22.2 ENE 6 7 1020.4 - 0.0 - - - - - - -
19/10:30am 21.8 ENE 6 8 1020.8 - 0.0 - - - - - - -
19/10:00am 21.0 E 5 6 1021.1 - 0.0 - - - - - - -
19/09:30am 21.0 SSE 5 6 1021.4 - 0.0 - - - - - - -
19/09:00am 20.0 S 7 8 1021.6 - 0.0 - - - - - - -
19/08:30am 18.8 S 6 7 1021.5 - 0.0 - - - - - - -
19/08:00am 17.4 SSW 5 7 1021.5 - 0.0 - - - - - - -
19/07:30am 15.5 SW 6 8 1021.3 - 0.0 - - - - - - -
19/07:00am 13.7 WSW 5 6 1020.8 - 0.0 - - - - - - -
19/06:30am 12.0 WSW 5 6 1020.5 - 0.0 - - - - - - -
19/06:00am 10.7 WSW 7 9 1020.4 - 0.0 - - - - - - -
19/05:30am 11.0 WSW 7 8 1020.2 - 0.0 - - - - - - -
19/05:00am 11.2 WSW 5 7 1019.8 - 0.0 - - - - - - -
19/04:30am 11.3 WSW 6 7 1019.4 - 0.0 - - - - - - -
19/04:00am 11.8 WSW 4 6 1019.0 - 0.0 - - - - - - -
19/03:30am 11.9 WSW 5 6 1019.1 - 0.0 - - - - - - -
19/03:00am 12.1 WSW 6 8 1019.0 - 0.0 - - - - - - -
19/02:30am 12.4 WSW 6 7 1018.9 - 0.0 - - - - - - -
19/02:00am 13.0 WSW 6 8 1019.0 - 0.0 - - - - - - -
19/01:30am 13.5 WSW 3 5 1019.2 - 0.0 - - - - - - -
19/01:00am 13.6 W 5 7 1019.4 - 0.0 - - - - - - -
19/12:30am 14.0 W 5 6 1019.4 - 0.0 - - - - - - -
19/12:00am 14.5 W 5 6 1019.7 - 0.0 - - - - - - -
 
Date/Time
EST
Temp

°C
Wind Pressure Rain
since 9am
mm
Weather Cloud Vis
km
Sea
Height
m
Swell
Dir
 
Speed
knots
Gust
knots
hPa Trend Height
m
Period
s
Dir
18/11:30pm 15.5 WNW 5 6 1019.9 - 0.0 - - - - - - -
18/11:00pm 15.2 W 5 6 1019.8 - 0.0 - - - - - - -
18/10:30pm 16.1 WNW 6 6 1019.9 - 0.0 - - - - - - -
18/10:00pm 17.7 NNE 9 10 1020.1 - 0.0 - - - - - - -
18/09:30pm 19.1 NNE 9 10 1019.9 - 0.0 - - - - - - -
18/09:00pm 19.4 N 9 12 1019.6 - 0.0 - - - - - - -
18/08:30pm 19.3 NE 10 12 1019.4 - 0.0 - - - - - - -
18/08:00pm 19.4 NE 10 11 1019.2 - 0.0 - - - - - - -
18/07:30pm 19.7 NE 9 11 1018.9 - 0.0 - - - - - - -
18/07:00pm 19.8 NE 9 12 1018.5 - 0.0 - - - - - - -
18/06:30pm 19.9 NE 11 13 1017.9 - 0.0 - - - - - - -
18/06:00pm 19.9 ENE 10 12 1017.5 - 0.0 - - - - - - -
18/05:30pm 20.4 ENE 11 13 1017.0 - 0.0 - - - - - - -
18/05:00pm 20.8 E 12 14 1016.6 - 0.0 - - - - - - -
18/04:30pm 21.1 E 15 16 1015.8 - 0.0 - - - - - - -
18/04:00pm 21.6 E 13 16 1015.4 - 0.0 - - - - - - -
18/03:30pm 22.1 E 11 14 1015.2 - 0.0 - - - - - - -
18/03:00pm 22.2 E 11 12 1015.3 - 0.0 - - - - - - -
18/02:30pm 23.0 E 11 13 1015.4 - 0.0 - - - - - - -
18/02:00pm 22.6 ENE 11 13 1015.6 - 0.0 - - - - - - -
18/01:30pm 23.9 ENE 13 17 1015.9 - 0.0 - - - - - - -
18/01:00pm 25.3 ESE 7 9 1016.2 - 0.0 - - - - - - -
18/12:30pm 24.8 SSW 7 14 1016.8 - 0.0 - - - - - - -
18/12:00pm 24.1 SSW 7 12 1017.3 - 0.0 - - - - - - -
18/11:30am 23.9 SSW 10 14 1017.7 - 0.0 - - - - - - -
18/11:00am 23.3 SSW 11 16 1018.3 - 0.0 - - - - - - -
18/10:30am 23.6 S 9 14 1018.7 - 0.0 - - - - - - -
18/10:00am 23.2 SSW 10 15 1019.0 - 0.0 - - - - - - -

Other Formats:

Comma delimited format used in spreadsheet applications
http://www.bom.gov.au/fwo/IDQ60701/IDQ60701.95591.axf

JavaScript Object Notation format (JSON) in row-major order
http://www.bom.gov.au/fwo/IDQ60701/IDQ60701.95591.json